createdAt,value
2022-09-03T00:01:19.319Z,19.73
2022-09-03T00:03:52.596Z,22.33
2022-09-03T00:06:43.405Z,20.90
2022-09-03T00:09:37.750Z,20.15
2022-09-03T00:12:13.405Z,22.30
2022-09-03T00:15:17.909Z,19.90
2022-09-03T00:17:50.316Z,21.92
2022-09-03T00:20:36.411Z,21.15
2022-09-03T00:23:10.431Z,20.60
2022-09-03T00:25:45.201Z,20.45
2022-09-03T00:28:17.945Z,21.45
2022-09-03T00:30:48.791Z,24.73
2022-09-03T00:33:22.864Z,22.58
2022-09-03T00:36:05.191Z,20.67
2022-09-03T00:38:32.236Z,26.17
2022-09-03T00:41:08.923Z,19.60
2022-09-03T00:43:38.705Z,23.88
2022-09-03T00:46:32.138Z,20.92
2022-09-03T00:49:35.789Z,18.20
2022-09-03T00:52:23.382Z,17.88
2022-09-03T00:54:52.791Z,16.75
2022-09-03T00:57:25.842Z,26.45
2022-09-03T01:00:16.545Z,22.88
2022-09-03T01:03:26.989Z,19.90
2022-09-03T01:06:09.950Z,20.20
2022-09-03T01:09:15.201Z,28.93
2022-09-03T01:11:54.760Z,25.08
2022-09-03T01:15:06.750Z,21.88
2022-09-03T01:18:00.687Z,17.38
2022-09-03T01:20:42.308Z,18.08
2022-09-03T01:23:27.213Z,18.77
2022-09-03T01:26:14.418Z,21.25
2022-09-03T01:29:07.641Z,20.20
2022-09-03T01:31:46.320Z,24.63
2022-09-03T01:34:35.027Z,20.98
2022-09-03T01:37:07.635Z,23.75
2022-09-03T01:39:39.343Z,25.77
2022-09-03T01:42:20.508Z,19.75
2022-09-03T01:44:58.375Z,18.95
2022-09-03T01:47:54.613Z,24.42
2022-09-03T01:50:46.244Z,24.30
2022-09-03T01:53:44.224Z,23.88
2022-09-03T01:56:34.478Z,22.27
2022-09-03T01:59:03.876Z,24.80
2022-09-03T02:01:40.408Z,23.30
2022-09-03T02:04:24.998Z,20.30
2022-09-03T02:06:53.484Z,22.02
2022-09-03T02:09:21.101Z,19.38
2022-09-03T02:12:06.528Z,19.08
2022-09-03T02:14:33.620Z,20.13
2022-09-03T02:17:03.063Z,20.77
2022-09-03T02:19:31.470Z,25.77
2022-09-03T02:21:58.808Z,18.70
2022-09-03T02:24:26.152Z,21.27
2022-09-03T02:26:53.794Z,23.33
2022-09-03T02:29:21.510Z,21.30
2022-09-03T02:31:48.364Z,19.77
2022-09-03T02:34:15.261Z,19.98
2022-09-03T02:36:46.182Z,23.20
2022-09-03T02:39:14.107Z,19.83
2022-09-03T02:41:41.300Z,18.08
2022-09-03T02:44:31.837Z,19.80
2022-09-03T02:47:05.361Z,21.77
2022-09-03T02:52:02.222Z,37.00
2022-09-03T02:54:29.120Z,20.88
2022-09-03T02:56:55.819Z,21.23
2022-09-03T02:59:22.903Z,22.98
2022-09-03T03:01:50.146Z,20.48
2022-09-03T03:04:17.102Z,19.38
2022-09-03T03:06:45.808Z,29.30
2022-09-03T03:09:14.417Z,21.92
2022-09-03T03:11:41.389Z,25.45
2022-09-03T03:14:08.101Z,19.35
2022-09-03T03:16:35.043Z,22.42
2022-09-03T03:19:01.925Z,22.83
2022-09-03T03:21:29.035Z,25.67
2022-09-03T03:23:55.756Z,31.05
2022-09-03T03:26:23.215Z,26.52
2022-09-03T03:28:56.909Z,26.85
2022-09-03T03:31:23.690Z,31.27
2022-09-03T03:33:55.074Z,24.85
2022-09-03T03:36:23.175Z,25.63
2022-09-03T03:38:49.977Z,27.35
2022-09-03T03:41:22.461Z,31.05
2022-09-03T03:43:55.016Z,31.40
2022-09-03T03:46:23.773Z,35.97
2022-09-03T03:48:52.396Z,33.90
2022-09-03T03:51:19.760Z,24.58
2022-09-03T03:53:47.824Z,23.42
2022-09-03T03:56:16.407Z,24.30
2022-09-03T03:58:44.144Z,28.33
2022-09-03T04:01:14.448Z,27.15
2022-09-03T04:03:42.101Z,25.70
2022-09-03T04:06:10.588Z,27.33
2022-09-03T04:08:39.582Z,22.50
2022-09-03T04:11:10.052Z,22.38
2022-09-03T04:13:42.019Z,21.63
2022-09-03T04:16:18.225Z,22.58
2022-09-03T04:18:45.783Z,23.08
2022-09-03T04:21:15.612Z,19.80
2022-09-03T04:23:45.535Z,20.45
2022-09-03T04:26:15.043Z,20.80
2022-09-03T04:28:42.220Z,19.90
2022-09-03T04:31:11.742Z,17.23
2022-09-03T04:33:39.812Z,19.40
2022-09-03T04:36:15.022Z,24.13
2022-09-03T04:38:43.990Z,23.73
2022-09-03T04:41:14.371Z,25.30
2022-09-03T04:43:44.507Z,20.95
2022-09-03T04:46:16.277Z,25.08
2022-09-03T04:48:47.285Z,20.65
2022-09-03T04:51:16.294Z,21.65
2022-09-03T04:53:46.022Z,21.60
2022-09-03T04:56:21.259Z,20.85
2022-09-03T04:58:51.106Z,16.50
2022-09-03T05:01:24.710Z,20.35
2022-09-03T05:06:19.592Z,17.08
2022-09-03T05:08:50.542Z,18.60
2022-09-03T05:11:18.063Z,15.93
2022-09-03T05:13:48.609Z,14.00
2022-09-03T05:16:16.047Z,13.45
2022-09-03T05:18:42.983Z,11.73
2022-09-03T05:21:12.264Z,12.90
2022-09-03T05:23:42.661Z,11.45
2022-09-03T05:26:21.503Z,11.43
2022-09-03T05:28:48.788Z,13.32
2022-09-03T05:31:18.205Z,9.45
2022-09-03T05:33:47.415Z,8.98
2022-09-03T05:36:38.271Z,12.20
2022-09-03T05:39:05.894Z,8.27
2022-09-03T05:41:34.326Z,9.88
2022-09-03T05:44:02.292Z,10.23
2022-09-03T05:46:34.050Z,14.50
2022-09-03T05:49:02.500Z,12.52
2022-09-03T05:51:30.432Z,14.23
2022-09-03T05:53:57.975Z,12.20
2022-09-03T05:56:26.986Z,14.65
2022-09-03T05:58:56.335Z,12.10
2022-09-03T06:01:29.457Z,18.75
2022-09-03T06:04:03.260Z,11.50
2022-09-03T06:06:32.104Z,9.10
2022-09-03T06:09:06.155Z,10.30
2022-09-03T06:11:35.476Z,11.63
2022-09-03T06:14:08.125Z,10.80
2022-09-03T06:16:37.842Z,9.20
2022-09-03T06:19:09.767Z,5.90
2022-09-03T06:21:40.092Z,6.20
2022-09-03T06:24:06.765Z,6.22
2022-09-03T06:26:33.418Z,8.77
2022-09-03T06:29:01.367Z,7.03
2022-09-03T06:31:28.234Z,8.10
2022-09-03T06:33:55.981Z,9.88
2022-09-03T06:36:26.633Z,9.30
2022-09-03T06:38:55.769Z,12.00
2022-09-03T06:41:25.291Z,9.05
2022-09-03T06:44:03.304Z,9.55
2022-09-03T06:46:36.145Z,11.88
2022-09-03T06:49:03.274Z,8.27
2022-09-03T06:51:32.034Z,10.13
2022-09-03T06:54:09.666Z,9.55
2022-09-03T06:56:40.471Z,9.30
2022-09-03T06:59:13.348Z,8.35
2022-09-03T07:01:44.146Z,12.23
2022-09-03T07:04:12.857Z,8.73
2022-09-03T07:06:40.979Z,7.18
2022-09-03T07:09:09.009Z,6.70
2022-09-03T07:11:36.806Z,6.07
2022-09-03T07:14:05.601Z,7.50
2022-09-03T07:16:37.614Z,7.07
2022-09-03T07:19:09.132Z,8.75
2022-09-03T07:21:36.991Z,5.72
2022-09-03T07:24:05.838Z,6.50
2022-09-03T07:26:35.532Z,8.98
2022-09-03T07:29:02.321Z,5.65
2022-09-03T07:31:38.059Z,6.18
2022-09-03T07:34:10.467Z,4.35
2022-09-03T07:36:41.652Z,5.33
2022-09-03T07:39:11.425Z,5.32
2022-09-03T07:41:38.616Z,8.45
2022-09-03T07:44:08.124Z,4.20
2022-09-03T07:46:38.021Z,5.80
2022-09-03T07:49:06.463Z,3.90
2022-09-03T07:51:38.612Z,4.38
2022-09-03T07:54:07.789Z,4.88
2022-09-03T07:56:35.995Z,5.03
2022-09-03T07:59:03.490Z,4.45
2022-09-03T08:01:33.875Z,4.10
2022-09-03T08:04:02.163Z,3.10
2022-09-03T08:06:30.342Z,5.78
2022-09-03T08:09:03.696Z,3.67
2022-09-03T08:11:32.308Z,3.17
2022-09-03T08:14:02.723Z,3.33
2022-09-03T08:16:32.116Z,5.15
2022-09-03T08:18:59.575Z,3.90
2022-09-03T08:21:27.875Z,2.85
2022-09-03T08:24:02.701Z,3.30
2022-09-03T08:26:35.340Z,2.75
2022-09-03T08:29:02.912Z,3.20
2022-09-03T08:31:30.375Z,3.17
2022-09-03T08:33:59.326Z,3.47
2022-09-03T08:36:30.128Z,4.22
2022-09-03T08:39:04.361Z,6.85
2022-09-03T08:41:50.357Z,3.50
2022-09-03T08:44:26.190Z,3.72
2022-09-03T08:47:09.921Z,5.38
2022-09-03T08:52:28.641Z,6.18
2022-09-03T08:55:11.824Z,7.72
2022-09-03T08:57:48.299Z,6.38
2022-09-03T09:00:16.410Z,6.32
2022-09-03T09:03:22.612Z,4.07
2022-09-03T09:06:07.344Z,5.28
2022-09-03T09:08:56.755Z,6.25
2022-09-03T09:11:34.914Z,10.20
2022-09-03T09:14:15.489Z,13.30
2022-09-03T09:17:32.633Z,9.65
2022-09-03T09:20:17.614Z,4.75
2022-09-03T09:22:49.423Z,4.55
2022-09-03T09:25:22.227Z,5.15
2022-09-03T09:28:03.856Z,5.20
2022-09-03T09:30:32.824Z,5.03
2022-09-03T09:33:00.699Z,4.65
2022-09-03T09:35:27.540Z,4.35
2022-09-03T09:38:00.241Z,4.57
2022-09-03T09:40:39.561Z,4.45
2022-09-03T09:43:21.522Z,5.63
2022-09-03T09:45:53.647Z,5.05
2022-09-03T09:48:31.595Z,6.22
2022-09-03T09:51:06.148Z,8.23
2022-09-03T09:53:32.975Z,4.60
2022-09-03T09:56:00.002Z,7.80
2022-09-03T09:58:31.100Z,4.25
2022-09-03T10:01:05.338Z,5.13
2022-09-03T10:03:35.717Z,7.63
2022-09-03T10:06:27.623Z,7.30
2022-09-03T10:09:16.744Z,4.78
2022-09-03T10:11:50.910Z,5.78
2022-09-03T10:14:33.339Z,4.70
2022-09-03T10:17:24.914Z,4.03
2022-09-03T10:20:27.953Z,3.45
2022-09-03T10:22:57.741Z,9.75
2022-09-03T10:25:39.130Z,6.05
2022-09-03T10:28:09.136Z,7.97
2022-09-03T10:31:19.815Z,9.63
2022-09-03T10:34:18.728Z,8.55
2022-09-03T10:36:51.375Z,9.65
2022-09-03T10:39:24.023Z,4.10
2022-09-03T10:42:11.728Z,6.10
2022-09-03T10:45:04.161Z,4.43
2022-09-03T10:48:06.194Z,5.72
2022-09-03T10:50:50.588Z,5.50
2022-09-03T10:53:21.146Z,4.50
2022-09-03T10:55:53.724Z,5.30
2022-09-03T10:58:39.198Z,4.70
2022-09-03T11:01:51.047Z,4.80
2022-09-03T11:04:45.470Z,5.72
2022-09-03T11:07:19.973Z,6.20
2022-09-03T11:09:53.744Z,5.90
2022-09-03T11:12:29.537Z,4.10
2022-09-03T11:15:12.495Z,3.70
2022-09-03T11:17:56.981Z,4.20
2022-09-03T11:20:26.525Z,4.97
2022-09-03T11:23:00.185Z,5.20
2022-09-03T11:25:33.175Z,5.55
2022-09-03T11:28:33.835Z,3.97
2022-09-03T11:31:29.489Z,4.65
2022-09-03T11:34:06.812Z,4.50
2022-09-03T11:36:38.776Z,5.80
2022-09-03T11:39:26.969Z,4.00
2022-09-03T11:42:09.614Z,4.95
2022-09-03T11:44:51.594Z,4.10
2022-09-03T11:47:21.409Z,3.45
2022-09-03T11:49:51.950Z,5.53
2022-09-03T11:52:30.226Z,4.75
2022-09-03T11:54:57.152Z,3.92
2022-09-03T11:57:31.906Z,7.78
2022-09-03T12:00:14.637Z,4.40
2022-09-03T12:02:48.945Z,4.10
2022-09-03T12:05:40.505Z,6.43
2022-09-03T12:08:38.991Z,4.38
2022-09-03T12:11:24.768Z,6.53
2022-09-03T12:14:20.695Z,7.45
2022-09-03T12:17:06.013Z,3.65
2022-09-03T12:19:51.878Z,6.18
2022-09-03T12:22:20.621Z,3.60
2022-09-03T12:24:48.249Z,9.88
2022-09-03T12:27:24.972Z,6.22
2022-09-03T12:30:04.428Z,5.43
2022-09-03T12:32:37.683Z,4.43
2022-09-03T12:38:08.720Z,3.58
2022-09-03T12:41:23.532Z,5.10
2022-09-03T12:43:49.913Z,4.18
2022-09-03T12:46:17.655Z,4.95
2022-09-03T12:51:55.770Z,7.38
2022-09-03T12:54:23.783Z,4.15
2022-09-03T12:56:57.795Z,4.97
2022-09-03T12:59:29.505Z,9.25
2022-09-03T13:02:01.946Z,6.05
2022-09-03T13:04:33.945Z,6.60
2022-09-03T13:07:03.706Z,4.97
2022-09-03T13:09:33.272Z,4.75
2022-09-03T13:12:01.281Z,4.80
2022-09-03T13:14:28.149Z,5.53
2022-09-03T13:17:05.032Z,3.78
2022-09-03T13:19:52.043Z,4.55
2022-09-03T13:22:30.006Z,4.28
2022-09-03T13:25:14.721Z,4.10
2022-09-03T13:27:44.469Z,3.33
2022-09-03T13:30:14.007Z,3.65
2022-09-03T13:33:01.924Z,4.18
2022-09-03T13:35:37.273Z,10.23
2022-09-03T13:38:25.393Z,9.45
2022-09-03T13:41:22.271Z,5.95
2022-09-03T13:44:03.129Z,3.65
2022-09-03T13:46:40.078Z,5.53
2022-09-03T13:49:39.928Z,4.05
2022-09-03T13:52:22.581Z,5.55
2022-09-03T13:55:01.590Z,9.18
2022-09-03T13:57:41.690Z,3.75
2022-09-03T14:00:13.048Z,4.03
2022-09-03T14:02:42.857Z,6.20
2022-09-03T14:05:31.563Z,11.48
2022-09-03T14:07:58.236Z,3.92
2022-09-03T14:10:31.522Z,5.05
2022-09-03T14:13:04.303Z,5.10
2022-09-03T14:15:45.413Z,8.27
2022-09-03T14:18:28.561Z,7.43
2022-09-03T14:21:01.449Z,17.63
2022-09-03T14:23:59.472Z,16.77
2022-09-03T14:26:39.646Z,9.88
2022-09-03T14:29:12.980Z,3.72
2022-09-03T14:31:58.524Z,8.05
2022-09-03T14:35:09.997Z,6.57
2022-09-03T14:37:55.194Z,5.88
2022-09-03T14:40:40.408Z,7.70
2022-09-03T14:43:58.295Z,8.40
2022-09-03T14:47:09.638Z,7.47
2022-09-03T14:49:42.142Z,8.75
2022-09-03T14:52:26.772Z,4.97
2022-09-03T14:54:56.141Z,4.47
2022-09-03T14:57:22.777Z,3.92
2022-09-03T15:00:01.365Z,4.43
2022-09-03T15:02:34.276Z,5.68
2022-09-03T15:05:11.456Z,5.60
2022-09-03T15:07:44.204Z,3.97
2022-09-03T15:10:14.229Z,9.52
2022-09-03T15:12:43.265Z,20.88
2022-09-03T15:15:19.662Z,6.95
2022-09-03T15:18:14.370Z,9.23
2022-09-03T15:21:00.710Z,17.83
2022-09-03T15:23:43.538Z,3.15
2022-09-03T15:26:25.151Z,5.03
2022-09-03T15:29:22.042Z,4.65
2022-09-03T15:32:12.990Z,5.18
2022-09-03T15:34:58.343Z,11.50
2022-09-03T15:37:59.736Z,4.25
2022-09-03T15:40:51.734Z,5.50
2022-09-03T15:43:27.536Z,5.38
2022-09-03T15:45:58.731Z,8.50
2022-09-03T15:48:37.515Z,14.90
2022-09-03T15:51:30.176Z,31.42
2022-09-03T15:54:13.613Z,24.25
2022-09-03T15:56:48.338Z,9.88
2022-09-03T15:59:30.115Z,12.45
2022-09-03T16:02:11.171Z,5.28
2022-09-03T16:05:06.064Z,5.18
2022-09-03T16:07:38.914Z,9.75
2022-09-03T16:10:24.382Z,22.52
2022-09-03T16:13:02.141Z,6.60
2022-09-03T16:15:34.997Z,5.00
2022-09-03T16:18:09.308Z,4.97
2022-09-03T16:20:43.979Z,17.75
2022-09-03T16:23:19.627Z,8.23
2022-09-03T16:25:56.426Z,3.97
2022-09-03T16:28:31.532Z,5.20
2022-09-03T16:30:58.781Z,3.65
2022-09-03T16:33:52.392Z,4.30
2022-09-03T16:36:27.966Z,2.95
2022-09-03T16:39:12.772Z,4.72
2022-09-03T16:42:03.793Z,3.30
2022-09-03T16:44:50.850Z,5.55
2022-09-03T16:47:48.731Z,3.60
2022-09-03T16:50:30.264Z,7.05
2022-09-03T16:53:15.776Z,5.43
2022-09-03T16:56:00.241Z,13.52
2022-09-03T16:58:47.173Z,10.85
2022-09-03T17:01:21.932Z,9.15
2022-09-03T17:04:08.084Z,9.60
2022-09-03T17:06:57.662Z,3.60
2022-09-03T17:09:27.717Z,4.75
2022-09-03T17:12:11.352Z,4.93
2022-09-03T17:15:00.685Z,5.50
2022-09-03T17:17:42.968Z,5.22
2022-09-03T17:20:12.531Z,9.30
2022-09-03T17:23:09.898Z,10.07
2022-09-03T17:25:51.249Z,17.77
2022-09-03T17:28:22.717Z,10.15
2022-09-03T17:36:19.168Z,15.32
2022-09-03T17:41:34.400Z,8.57
2022-09-03T17:47:07.535Z,10.40
2022-09-03T17:49:50.538Z,7.63
2022-09-03T17:52:58.464Z,5.23
2022-09-03T17:55:36.441Z,9.07
2022-09-03T17:58:25.047Z,7.57
2022-09-03T18:01:12.297Z,6.13
2022-09-03T18:04:05.139Z,5.40
2022-09-03T18:07:18.532Z,14.83
2022-09-03T18:10:08.097Z,10.07
2022-09-03T18:12:59.879Z,6.45
2022-09-03T18:15:52.453Z,6.03
2022-09-03T18:18:28.286Z,7.47
2022-09-03T18:21:29.001Z,5.60
2022-09-03T18:24:51.369Z,5.05
2022-09-03T18:27:55.283Z,6.72
2022-09-03T18:30:40.555Z,6.00
2022-09-03T18:33:25.822Z,6.55
2022-09-03T18:36:11.220Z,7.18
2022-09-03T18:38:58.853Z,8.13
2022-09-03T18:42:19.012Z,5.82
2022-09-03T18:46:14.848Z,12.45
2022-09-03T18:49:08.800Z,13.45
2022-09-03T18:52:24.688Z,9.52
2022-09-03T18:55:15.777Z,5.75
2022-09-03T18:58:23.993Z,5.13
2022-09-03T19:01:24.023Z,6.13
2022-09-03T19:04:27.724Z,6.25
2022-09-03T19:07:42.335Z,6.28
2022-09-03T19:10:36.241Z,7.50
2022-09-03T19:13:49.851Z,14.32
2022-09-03T19:16:47.227Z,8.75
2022-09-03T19:20:06.505Z,6.00
2022-09-03T19:22:59.554Z,8.80
2022-09-03T19:25:46.666Z,9.18
2022-09-03T19:28:41.005Z,6.30
2022-09-03T19:31:28.962Z,5.07
2022-09-03T19:34:38.881Z,5.65
2022-09-03T19:37:39.146Z,5.85
2022-09-03T19:41:12.851Z,6.80
2022-09-03T19:44:07.090Z,5.75
2022-09-03T19:46:58.601Z,6.45
2022-09-03T19:50:07.565Z,5.88
2022-09-03T19:53:17.873Z,5.35
2022-09-03T19:56:07.912Z,5.45
2022-09-03T19:58:57.194Z,5.22
2022-09-03T20:01:48.715Z,5.22
2022-09-03T20:04:34.975Z,7.28
2022-09-03T20:07:24.272Z,5.30
2022-09-03T20:10:10.776Z,5.00
2022-09-03T20:12:43.645Z,5.43
2022-09-03T20:15:10.770Z,7.55
2022-09-03T20:17:46.441Z,5.85
2022-09-03T20:20:25.186Z,5.63
2022-09-03T20:23:28.832Z,5.50
2022-09-03T20:26:10.553Z,5.63
2022-09-03T20:28:46.525Z,5.75
2022-09-03T20:31:43.589Z,6.00
2022-09-03T20:34:46.431Z,6.75
2022-09-03T20:37:25.013Z,5.90
2022-09-03T20:39:51.668Z,6.80
2022-09-03T20:42:30.039Z,5.28
2022-09-03T20:45:11.831Z,8.20
2022-09-03T20:48:00.339Z,5.85
2022-09-03T20:51:11.993Z,6.55
2022-09-03T20:53:43.922Z,5.28
2022-09-03T20:56:28.876Z,5.85
2022-09-03T20:59:34.672Z,5.13
2022-09-03T21:02:41.997Z,5.38
2022-09-03T21:05:38.012Z,5.30
2022-09-03T21:08:33.086Z,6.50
2022-09-03T21:11:10.544Z,7.55
2022-09-03T21:14:14.665Z,5.55
2022-09-03T21:17:07.468Z,9.52
2022-09-03T21:20:08.328Z,6.07
2022-09-03T21:22:59.704Z,5.82
2022-09-03T21:26:04.309Z,5.03
2022-09-03T21:28:40.421Z,6.70
2022-09-03T21:31:21.973Z,5.47
2022-09-03T21:33:55.820Z,6.30
2022-09-03T21:36:34.827Z,7.35
2022-09-03T21:39:20.562Z,6.75
2022-09-03T21:41:58.516Z,6.05
2022-09-03T21:44:46.900Z,6.70
2022-09-03T21:47:18.748Z,5.43
2022-09-03T21:50:16.461Z,6.72
2022-09-03T21:52:46.411Z,5.72
2022-09-03T21:55:47.979Z,7.18
2022-09-03T21:58:29.710Z,4.95
2022-09-03T22:01:04.484Z,7.07
2022-09-03T22:03:31.457Z,5.50
2022-09-03T22:06:05.004Z,5.45
2022-09-03T22:11:16.844Z,8.05
2022-09-03T22:14:01.682Z,5.35
2022-09-03T22:16:38.086Z,7.95
2022-09-03T22:19:07.804Z,6.72
2022-09-03T22:21:40.311Z,6.43
2022-09-03T22:24:23.094Z,6.82
2022-09-03T22:27:00.934Z,7.28
2022-09-03T22:29:45.216Z,6.60
2022-09-03T22:32:40.656Z,6.63
2022-09-03T22:35:16.116Z,7.82
2022-09-03T22:37:57.991Z,5.80
2022-09-03T22:40:43.915Z,12.55
2022-09-03T22:43:41.900Z,9.38
2022-09-03T22:46:20.156Z,8.25
2022-09-03T22:49:21.078Z,8.57
2022-09-03T22:52:16.841Z,7.90
2022-09-03T22:54:55.052Z,6.88
2022-09-03T22:57:25.745Z,12.23
2022-09-03T23:00:11.071Z,10.63
2022-09-03T23:02:41.639Z,6.55
2022-09-03T23:05:34.170Z,6.28
2022-09-03T23:08:09.923Z,8.45
2022-09-03T23:10:53.913Z,5.53
2022-09-03T23:13:33.866Z,7.45
2022-09-03T23:16:08.043Z,7.03
2022-09-03T23:18:36.826Z,7.72
2022-09-03T23:21:25.220Z,5.75
2022-09-03T23:24:14.284Z,11.50
2022-09-03T23:26:46.323Z,7.68
2022-09-03T23:29:29.158Z,9.27
2022-09-03T23:31:57.607Z,5.57
2022-09-03T23:34:25.718Z,9.55
2022-09-03T23:37:35.311Z,6.78
2022-09-03T23:40:12.906Z,6.55
2022-09-03T23:42:51.538Z,7.32
2022-09-03T23:45:37.210Z,6.32
2022-09-03T23:48:58.183Z,6.32
2022-09-03T23:51:54.299Z,7.53
2022-09-03T23:54:46.845Z,5.65
2022-09-03T23:57:33.765Z,6.88
